N7510 EDDV-EDDH
Flight info
| Callsign | N7510 |
|---|---|
| Flight time | N/A |
| Altitude | 23000 |
| Route | CEL9G CEL Q282 DIRBO T902 RARUP RARUP3D |
| Aircraft | LJ35/M-SGHRWXY/SB1 |
Departure
| Time | 2026-05-01 13:48 |
|---|---|
| Airport | Hannover Airport (EDDV) |
Arrival
| Time | N/A |
|---|---|
| Airport | Hamburg Helmut Schmidt Airport (EDDH) |
| Time | Latitude | Longitude | Altitude | Speed | Heading |
|---|---|---|---|---|---|
| 2026-05-01 13:38 | 52.46398 | 9.68751 | 175 ft | 0 kts | 85° |
| 2026-05-01 13:43 | 52.46399 | 9.68765 | 175 ft | 6 kts | 82° |
| 2026-05-01 13:43 | 52.46414 | 9.68853 | 176 ft | 9 kts | 65° |
| 2026-05-01 13:43 | 52.46427 | 9.68893 | 177 ft | 0 kts | 57° |
| 2026-05-01 13:44 | 52.46428 | 9.68894 | 177 ft | 1 kts | 57° |
| 2026-05-01 13:44 | 52.46453 | 9.68907 | 177 ft | 11 kts | 359° |
| 2026-05-01 13:44 | 52.46471 | 9.68818 | 177 ft | 16 kts | 273° |
| 2026-05-01 13:45 | 52.46477 | 9.68571 | 172 ft | 29 kts | 271° |
| 2026-05-01 13:45 | 52.46500 | 9.68330 | 174 ft | 11 kts | 306° |
| 2026-05-01 13:45 | 52.46520 | 9.68153 | 173 ft | 23 kts | 275° |
| 2026-05-01 13:45 | 52.46528 | 9.67811 | 178 ft | 31 kts | 274° |
| 2026-05-01 13:46 | 52.46540 | 9.67461 | 178 ft | 24 kts | 272° |
| 2026-05-01 13:46 | 52.46549 | 9.67108 | 176 ft | 38 kts | 272° |
| 2026-05-01 13:46 | 52.46558 | 9.66772 | 174 ft | 21 kts | 273° |
| 2026-05-01 13:46 | 52.46662 | 9.66671 | 174 ft | 4 kts | 4° |
| 2026-05-01 13:47 | 52.46730 | 9.66674 | 177 ft | 22 kts | 3° |
| 2026-05-01 13:47 | 52.46776 | 9.67019 | 173 ft | 59 kts | 92° |
| 2026-05-01 13:47 | 52.46750 | 9.68016 | 175 ft | 113 kts | 92° |
| 2026-05-01 13:47 | 52.46703 | 9.69520 | 298 ft | 142 kts | 95° |
| 2026-05-01 13:48 | 52.46588 | 9.71146 | 854 ft | 145 kts | 101° |
| 2026-05-01 13:48 | 52.46583 | 9.72839 | 1360 ft | 148 kts | 92° |
| 2026-05-01 13:48 | 52.46569 | 9.74488 | 1947 ft | 143 kts | 97° |